createdAt,value
2023-05-01T00:00:08.168Z,41.38
2023-05-01T00:01:08.146Z,41.37
2023-05-01T00:02:08.151Z,41.39
2023-05-01T00:03:08.262Z,41.38
2023-05-01T00:04:08.363Z,41.39
2023-05-01T00:05:08.330Z,41.36
2023-05-01T00:06:08.333Z,41.35
2023-05-01T00:07:08.279Z,41.36
2023-05-01T00:08:08.283Z,41.36
2023-05-01T00:09:08.332Z,41.38
2023-05-01T00:10:08.578Z,41.34
2023-05-01T00:11:08.381Z,41.33
2023-05-01T00:12:08.353Z,41.38
2023-05-01T00:13:08.436Z,41.33
2023-05-01T00:14:08.416Z,41.34
2023-05-01T00:15:08.474Z,41.36
2023-05-01T00:16:08.515Z,41.36
2023-05-01T00:17:08.496Z,41.34
2023-05-01T00:18:08.587Z,41.36
2023-05-01T00:19:08.526Z,41.35
2023-05-01T00:20:08.552Z,41.35
2023-05-01T00:21:08.585Z,41.34
2023-05-01T00:22:54.337Z,41.39
2023-05-01T00:23:54.334Z,41.35
2023-05-01T00:24:54.307Z,41.35
2023-05-01T00:25:54.309Z,41.36
2023-05-01T00:26:54.292Z,41.33
2023-05-01T00:27:54.274Z,41.35
2023-05-01T00:28:54.265Z,41.34
2023-05-01T00:29:54.643Z,41.34
2023-05-01T00:30:54.307Z,41.35
2023-05-01T00:31:54.369Z,41.34
2023-05-01T00:32:54.304Z,41.32
2023-05-01T00:33:54.307Z,41.33
2023-05-01T00:34:54.281Z,41.33
2023-05-01T00:35:54.565Z,41.33
2023-05-01T00:36:54.378Z,41.33
2023-05-01T00:37:54.384Z,41.33
2023-05-01T00:38:54.395Z,41.30
2023-05-01T00:39:54.868Z,41.32
2023-05-01T00:40:54.536Z,41.32
2023-05-01T00:41:54.495Z,41.32
2023-05-01T00:42:54.480Z,41.30
2023-05-01T00:43:54.552Z,41.30
2023-05-01T00:44:54.539Z,41.30
2023-05-01T00:45:54.605Z,41.30
2023-05-01T00:46:54.607Z,41.29
2023-05-01T00:47:54.624Z,41.33
2023-05-01T00:48:54.652Z,41.29
2023-05-01T00:49:54.813Z,41.30
2023-05-01T00:50:54.674Z,41.33
2023-05-01T00:51:54.710Z,41.30
2023-05-01T00:52:54.741Z,41.28
2023-05-01T00:53:54.743Z,41.29
2023-05-01T00:54:54.774Z,41.30
2023-05-01T00:55:54.821Z,41.26
2023-05-01T00:56:54.852Z,41.30
2023-05-01T00:57:54.839Z,41.29
2023-05-01T00:58:54.848Z,41.28
2023-05-01T00:59:55.196Z,41.28
2023-05-01T01:00:54.978Z,41.27
2023-05-01T01:01:56.454Z,41.31
2023-05-01T01:02:55.012Z,41.29
2023-05-01T01:03:55.016Z,41.29
2023-05-01T01:04:55.154Z,41.28
2023-05-01T01:05:55.050Z,41.27
2023-05-01T01:06:55.064Z,41.26
2023-05-01T01:07:55.083Z,41.24
2023-05-01T01:08:55.170Z,41.27
2023-05-01T01:09:55.460Z,41.24
2023-05-01T01:10:55.186Z,41.26
2023-05-01T01:11:55.208Z,41.27
2023-05-01T01:12:55.246Z,41.26
2023-05-01T01:13:55.237Z,41.25
2023-05-01T01:14:55.316Z,41.27
2023-05-01T01:15:55.305Z,41.27
2023-05-01T01:16:55.366Z,41.26
2023-05-01T01:17:55.374Z,41.24
2023-05-01T01:18:55.371Z,41.26
2023-05-01T01:19:55.707Z,41.25
2023-05-01T01:20:55.482Z,41.26
2023-05-01T01:21:55.495Z,41.26
2023-05-01T01:22:55.503Z,41.25
2023-05-01T01:23:55.544Z,41.25
2023-05-01T01:24:55.582Z,41.26
2023-05-01T01:25:55.601Z,41.27
2023-05-01T01:26:55.655Z,41.27
2023-05-01T01:27:55.672Z,41.25
2023-05-01T01:28:55.673Z,41.26
2023-05-01T01:29:56.124Z,41.25
2023-05-01T01:30:55.766Z,41.25
2023-05-01T01:31:55.762Z,41.23
2023-05-01T01:32:55.825Z,41.27
2023-05-01T01:33:55.830Z,41.25
2023-05-01T01:34:55.808Z,41.22
2023-05-01T01:35:56.565Z,41.23
2023-05-01T01:36:55.894Z,41.23
2023-05-01T01:37:55.938Z,41.23
2023-05-01T01:38:55.945Z,41.24
2023-05-01T01:39:56.112Z,41.24
2023-05-01T01:40:56.005Z,41.21
2023-05-01T01:41:56.017Z,41.21
2023-05-01T01:42:56.059Z,41.22
2023-05-01T01:43:56.050Z,41.23
2023-05-01T01:44:56.073Z,41.21
2023-05-01T01:45:56.162Z,41.20
2023-05-01T01:46:56.143Z,41.21
2023-05-01T01:47:56.224Z,41.22
2023-05-01T01:48:56.184Z,41.22
2023-05-01T01:49:56.425Z,41.22
2023-05-01T01:50:56.218Z,41.24
2023-05-01T01:51:56.279Z,41.22
2023-05-01T01:52:56.324Z,41.21
2023-05-01T01:53:56.338Z,41.21
2023-05-01T01:54:56.343Z,41.21
2023-05-01T01:55:56.354Z,41.22
2023-05-01T01:56:56.417Z,41.23
2023-05-01T01:57:56.427Z,41.21
2023-05-01T01:58:56.458Z,41.18
2023-05-01T01:59:56.836Z,41.21
2023-05-01T02:00:56.502Z,41.20
2023-05-01T02:01:56.639Z,41.19
2023-05-01T02:02:56.660Z,41.20
2023-05-01T02:03:56.722Z,41.20
2023-05-01T02:04:56.646Z,41.17
2023-05-01T02:05:56.717Z,41.20
2023-05-01T02:06:56.734Z,41.20
2023-05-01T02:07:56.737Z,41.18
2023-05-01T02:08:56.808Z,41.19
2023-05-01T02:09:57.103Z,41.17
2023-05-01T02:10:56.866Z,41.20
2023-05-01T02:11:56.845Z,41.18
2023-05-01T02:12:56.886Z,41.18
2023-05-01T02:13:56.936Z,41.17
2023-05-01T02:14:56.991Z,41.19
2023-05-01T02:15:57.052Z,41.17
2023-05-01T02:16:57.069Z,41.21
2023-05-01T02:17:57.133Z,41.18
2023-05-01T02:18:57.127Z,41.17
2023-05-01T02:19:57.363Z,41.19
2023-05-01T02:20:57.165Z,41.20
2023-05-01T02:21:57.192Z,41.17
2023-05-01T02:22:57.232Z,41.18
2023-05-01T02:23:57.278Z,41.17
2023-05-01T02:24:57.353Z,41.17
2023-05-01T02:25:57.616Z,41.18
2023-05-01T02:26:57.363Z,41.17
2023-05-01T02:27:57.387Z,41.18
2023-05-01T02:28:57.417Z,41.15
2023-05-01T02:29:57.713Z,41.16
2023-05-01T02:30:57.630Z,41.15
2023-05-01T02:31:57.611Z,41.16
2023-05-01T02:32:57.687Z,41.17
2023-05-01T02:33:57.600Z,41.15
2023-05-01T02:34:57.638Z,41.16
2023-05-01T02:35:58.109Z,41.18
2023-05-01T02:36:57.695Z,41.17
2023-05-01T02:37:57.697Z,41.17
2023-05-01T02:38:57.741Z,41.16
2023-05-01T02:39:58.000Z,41.15
2023-05-01T02:40:58.139Z,41.16
2023-05-01T02:41:57.857Z,41.14
2023-05-01T02:42:57.853Z,41.16
2023-05-01T02:43:57.883Z,41.16
2023-05-01T02:44:57.940Z,41.14
2023-05-01T02:45:58.170Z,41.14
2023-05-01T02:46:58.024Z,41.15
2023-05-01T02:47:58.079Z,41.15
2023-05-01T02:48:58.042Z,41.15
2023-05-01T02:49:58.357Z,41.13
2023-05-01T02:50:58.136Z,41.18
2023-05-01T02:51:58.180Z,41.14
2023-05-01T02:52:58.185Z,41.16
2023-05-01T02:53:58.241Z,41.14
2023-05-01T02:54:58.251Z,41.13
2023-05-01T02:55:58.648Z,41.14
2023-05-01T02:56:58.340Z,41.15
2023-05-01T02:57:58.503Z,41.13
2023-05-01T02:58:58.373Z,41.15
2023-05-01T02:59:58.457Z,41.14
2023-05-01T03:00:58.470Z,41.15
2023-05-01T03:01:58.463Z,41.14
2023-05-01T03:02:58.605Z,41.14
2023-05-01T03:03:58.612Z,41.13
2023-05-01T03:04:58.597Z,41.11
2023-05-01T03:05:58.698Z,41.13
2023-05-01T03:06:58.669Z,41.14
2023-05-01T03:07:58.708Z,41.14
2023-05-01T03:08:58.763Z,41.12
2023-05-01T03:09:58.778Z,41.12
2023-05-01T03:10:59.116Z,41.14
2023-05-01T03:11:58.842Z,41.14
2023-05-01T03:12:58.885Z,41.13
2023-05-01T03:13:58.893Z,41.10
2023-05-01T03:14:58.961Z,41.14
2023-05-01T03:15:58.995Z,41.11
2023-05-01T03:16:59.010Z,41.13
2023-05-01T03:17:59.094Z,41.12
2023-05-01T03:18:59.074Z,41.14
2023-05-01T03:19:59.093Z,41.11
2023-05-01T03:20:59.140Z,41.11
2023-05-01T03:21:59.179Z,41.12
2023-05-01T03:22:59.203Z,41.12
2023-05-01T03:23:59.233Z,41.12
2023-05-01T03:24:59.297Z,41.10
2023-05-01T03:25:59.661Z,41.10
2023-05-01T03:26:59.373Z,41.11
2023-05-01T03:27:59.400Z,41.08
2023-05-01T03:28:59.417Z,41.10
2023-05-01T03:29:59.449Z,41.10
2023-05-01T03:30:59.521Z,41.10
2023-05-01T03:31:59.536Z,41.10
2023-05-01T03:32:59.598Z,41.12
2023-05-01T03:33:59.578Z,41.07
2023-05-01T03:34:59.649Z,41.11
2023-05-01T03:36:00.136Z,41.10
2023-05-01T03:36:59.676Z,41.09
2023-05-01T03:37:59.720Z,41.07
2023-05-01T03:38:59.758Z,41.10
2023-05-01T03:39:59.783Z,41.09
2023-05-01T03:40:59.842Z,41.07
2023-05-01T03:41:59.862Z,41.09
2023-05-01T03:42:59.888Z,41.09
2023-05-01T03:43:59.932Z,41.10
2023-05-01T03:44:59.961Z,41.09
2023-05-01T03:46:00.252Z,41.06
2023-05-01T03:47:00.002Z,41.09
2023-05-01T03:48:00.065Z,41.09
2023-05-01T03:49:00.118Z,41.06
2023-05-01T03:50:00.114Z,41.09
2023-05-01T03:51:00.659Z,41.08
2023-05-01T03:52:00.165Z,41.08
2023-05-01T03:53:00.219Z,41.08
2023-05-01T03:54:00.340Z,41.08
2023-05-01T03:55:00.305Z,41.08
2023-05-01T03:56:00.683Z,41.09
2023-05-01T03:57:00.349Z,41.07
2023-05-01T03:58:00.378Z,41.05
2023-05-01T03:59:00.430Z,41.09
2023-05-01T04:00:00.557Z,41.09
2023-05-01T04:01:00.491Z,41.07
2023-05-01T04:02:00.702Z,41.08
2023-05-01T04:03:00.793Z,41.08
2023-05-01T04:04:00.703Z,41.06
2023-05-01T04:05:00.642Z,41.08
2023-05-01T04:06:00.668Z,41.07
2023-05-01T04:07:00.717Z,41.07
2023-05-01T04:08:00.744Z,41.06
2023-05-01T04:09:00.778Z,41.10
2023-05-01T04:10:00.814Z,41.06
2023-05-01T04:11:00.824Z,41.09
2023-05-01T04:12:00.853Z,41.08
2023-05-01T04:13:00.913Z,41.05
2023-05-01T04:14:00.910Z,41.08
2023-05-01T04:15:00.958Z,41.06
2023-05-01T04:16:01.023Z,41.07
2023-05-01T04:17:01.033Z,41.06
2023-05-01T04:18:01.099Z,41.06
2023-05-01T04:19:01.162Z,41.07
2023-05-01T04:20:01.106Z,41.05
2023-05-01T04:21:01.142Z,41.06
2023-05-01T04:22:01.212Z,41.04
2023-05-01T04:23:01.248Z,41.05
2023-05-01T04:24:01.286Z,41.04
2023-05-01T04:25:01.332Z,41.04
2023-05-01T04:26:01.323Z,41.04
2023-05-01T04:27:01.659Z,41.04
2023-05-01T04:28:01.422Z,41.05
2023-05-01T04:29:01.475Z,41.05
2023-05-01T04:30:01.521Z,41.05
2023-05-01T04:31:01.632Z,41.04
2023-05-01T04:32:01.720Z,41.04
2023-05-01T04:33:01.768Z,41.05
2023-05-01T04:34:01.626Z,41.05
2023-05-01T04:35:01.661Z,41.05
2023-05-01T04:36:01.698Z,41.04
2023-05-01T04:37:01.762Z,41.04
2023-05-01T04:38:01.757Z,41.03
2023-05-01T04:39:01.781Z,41.07
2023-05-01T04:40:01.835Z,41.02
2023-05-01T04:41:01.845Z,41.02
2023-05-01T04:42:01.960Z,41.04
2023-05-01T04:43:01.958Z,41.02
2023-05-01T04:44:01.985Z,41.03
2023-05-01T04:45:02.026Z,41.05
2023-05-01T04:46:02.102Z,41.01
2023-05-01T04:47:02.183Z,41.05
2023-05-01T04:48:02.217Z,41.04
2023-05-01T04:49:02.204Z,41.05
2023-05-01T04:50:02.267Z,41.02
2023-05-01T04:51:02.326Z,41.02
2023-05-01T04:52:02.330Z,41.04
2023-05-01T04:53:02.382Z,41.02
2023-05-01T04:54:02.410Z,41.02
2023-05-01T04:55:02.548Z,41.04
2023-05-01T04:56:02.482Z,41.03
2023-05-01T04:57:02.500Z,41.04
2023-05-01T04:58:02.531Z,41.02
2023-05-01T04:59:02.600Z,41.04
2023-05-01T05:00:02.642Z,41.03
2023-05-01T05:01:02.694Z,41.03
2023-05-01T05:02:02.835Z,41.02
2023-05-01T05:03:02.818Z,41.01
2023-05-01T05:04:02.963Z,41.01
2023-05-01T05:05:02.803Z,41.01
2023-05-01T05:06:02.910Z,41.03
2023-05-01T05:07:02.882Z,41.04
2023-05-01T05:08:02.952Z,41.01
2023-05-01T05:09:03.005Z,41.03
2023-05-01T05:10:03.020Z,40.99
2023-05-01T05:11:03.078Z,41.03
2023-05-01T05:12:03.075Z,41.02
2023-05-01T05:13:03.149Z,41.01
2023-05-01T05:14:03.153Z,41.02
2023-05-01T05:15:03.213Z,41.02
2023-05-01T05:16:03.275Z,40.99
2023-05-01T05:17:03.280Z,41.04
2023-05-01T05:18:03.385Z,41.01
2023-05-01T05:19:03.363Z,41.01
2023-05-01T05:20:03.417Z,41.01
2023-05-01T05:21:03.454Z,41.01
2023-05-01T05:22:03.500Z,41.02
2023-05-01T05:23:03.537Z,41.02
2023-05-01T05:24:03.573Z,41.04
2023-05-01T05:25:03.635Z,41.02
2023-05-01T05:26:03.694Z,41.03
2023-05-01T05:27:03.737Z,41.01
2023-05-01T05:28:03.759Z,41.01
2023-05-01T05:29:03.779Z,41.03
2023-05-01T05:30:03.854Z,41.04
2023-05-01T05:31:03.894Z,41.00
2023-05-01T05:32:03.968Z,41.02
2023-05-01T05:33:03.992Z,41.01
2023-05-01T05:34:03.994Z,40.99
2023-05-01T05:35:04.065Z,40.99
2023-05-01T05:36:04.086Z,41.02
2023-05-01T05:37:04.119Z,41.02
2023-05-01T05:38:04.136Z,41.01
2023-05-01T05:39:04.184Z,41.00
2023-05-01T05:40:04.210Z,41.02
2023-05-01T05:41:04.242Z,41.02
2023-05-01T05:42:04.270Z,40.99
2023-05-01T05:43:04.326Z,41.00
2023-05-01T05:44:04.334Z,41.03
2023-05-01T05:45:04.364Z,41.00
2023-05-01T05:46:04.483Z,41.00
2023-05-01T05:47:04.508Z,41.00
2023-05-01T05:48:04.530Z,41.02
2023-05-01T05:49:04.548Z,41.03
2023-05-01T05:50:04.577Z,41.00
2023-05-01T05:51:04.630Z,41.00
2023-05-01T05:52:04.632Z,41.00
2023-05-01T05:53:04.677Z,41.03
2023-05-01T05:54:04.716Z,40.99
2023-05-01T05:55:04.814Z,40.98
2023-05-01T05:56:04.795Z,41.00
2023-05-01T05:57:04.836Z,40.99
2023-05-01T05:58:04.884Z,41.02
2023-05-01T05:59:04.893Z,41.00
2023-05-01T06:00:04.959Z,40.99
2023-05-01T06:01:04.977Z,41.01
2023-05-01T06:02:05.267Z,40.98
2023-05-01T06:03:05.146Z,41.03
2023-05-01T06:04:05.099Z,41.01
2023-05-01T06:05:05.229Z,41.00
2023-05-01T06:06:05.255Z,41.02
2023-05-01T06:07:05.223Z,41.01
2023-05-01T06:08:05.210Z,40.99
2023-05-01T06:09:05.248Z,41.01
2023-05-01T06:10:05.396Z,41.01
2023-05-01T06:11:05.314Z,40.99
2023-05-01T06:12:05.376Z,41.00
2023-05-01T06:13:14.241Z,41.02
2023-05-01T06:14:06.428Z,41.03
2023-05-01T06:15:05.412Z,41.00
2023-05-01T06:16:05.476Z,40.99
2023-05-01T06:17:05.709Z,41.00
2023-05-01T06:18:05.447Z,41.03
2023-05-01T06:19:05.362Z,41.03
2023-05-01T06:20:05.359Z,41.01
2023-05-01T06:21:05.333Z,40.99
2023-05-01T06:22:05.321Z,41.02
2023-05-01T06:23:05.337Z,41.00
2023-05-01T06:24:05.323Z,40.99
2023-05-01T06:25:05.305Z,41.00
2023-05-01T06:26:05.342Z,41.00
2023-05-01T06:27:05.304Z,41.01
2023-05-01T06:28:05.290Z,41.01
2023-05-01T06:29:05.338Z,40.99
2023-05-01T06:30:05.335Z,41.03
2023-05-01T06:31:05.458Z,40.99
2023-05-01T06:32:05.445Z,40.99
2023-05-01T06:33:05.476Z,41.00
2023-05-01T06:34:05.510Z,40.99
2023-05-01T06:35:05.529Z,40.99
2023-05-01T06:36:05.564Z,40.99
2023-05-01T06:37:05.613Z,41.00
2023-05-01T06:38:05.656Z,41.00
2023-05-01T06:39:05.711Z,40.98
2023-05-01T06:40:05.745Z,40.99
2023-05-01T06:41:05.813Z,41.00
2023-05-01T06:42:05.799Z,40.98
2023-05-01T06:43:05.881Z,41.01
2023-05-01T06:44:05.869Z,40.99
2023-05-01T06:45:05.898Z,41.02
2023-05-01T06:46:05.914Z,41.00
2023-05-01T06:47:06.023Z,41.01
2023-05-01T06:48:06.028Z,40.99
2023-05-01T06:49:06.058Z,40.97
2023-05-01T06:50:06.153Z,40.99
2023-05-01T06:51:06.109Z,41.02
2023-05-01T06:52:06.162Z,40.99
2023-05-01T06:53:06.176Z,40.99
2023-05-01T06:54:06.205Z,41.01
2023-05-01T06:55:07.240Z,40.98
2023-05-01T06:56:06.293Z,40.99
2023-05-01T06:57:06.315Z,41.01
2023-05-01T06:58:12.581Z,41.00
2023-05-01T06:59:07.358Z,40.99
2023-05-01T07:00:06.366Z,41.01
2023-05-01T07:01:06.399Z,41.01
2023-05-01T07:02:06.332Z,41.00
2023-05-01T07:03:06.367Z,41.01
2023-05-01T07:04:06.328Z,41.01
2023-05-01T07:05:06.340Z,41.01
2023-05-01T07:06:06.344Z,41.02
2023-05-01T07:07:06.740Z,41.00
2023-05-01T07:08:06.279Z,41.02
2023-05-01T07:09:06.284Z,41.01
2023-05-01T07:10:06.255Z,41.00
2023-05-01T07:11:06.262Z,40.98
2023-05-01T07:12:06.770Z,41.00
2023-05-01T07:13:06.293Z,40.99
2023-05-01T07:14:06.319Z,41.02
2023-05-01T07:15:06.361Z,41.00
2023-05-01T07:16:06.457Z,41.02
2023-05-01T07:17:06.437Z,41.00
2023-05-01T07:18:06.552Z,41.00
2023-05-01T07:19:06.523Z,41.00
2023-05-01T07:20:06.545Z,41.01
2023-05-01T07:21:06.573Z,41.00
2023-05-01T07:22:06.757Z,41.02
2023-05-01T07:23:07.606Z,41.02
2023-05-01T07:24:06.699Z,41.00
2023-05-01T07:25:06.753Z,41.01
2023-05-01T07:26:06.777Z,41.01
2023-05-01T07:27:06.792Z,41.01
2023-05-01T07:28:06.849Z,41.02
2023-05-01T07:29:06.900Z,40.99
2023-05-01T07:30:06.913Z,41.00
2023-05-01T07:31:06.950Z,41.01
2023-05-01T07:32:07.125Z,41.01
2023-05-01T07:33:07.019Z,41.01
2023-05-01T07:34:07.035Z,41.02
2023-05-01T07:35:07.070Z,41.01
2023-05-01T07:36:07.114Z,40.99
2023-05-01T07:37:07.260Z,41.00
2023-05-01T07:38:07.210Z,41.00
2023-05-01T07:39:07.233Z,41.02
2023-05-01T07:40:07.282Z,41.01
2023-05-01T07:41:07.301Z,41.01
2023-05-01T07:42:07.326Z,41.01
2023-05-01T07:43:07.384Z,41.01
2023-05-01T07:44:07.410Z,40.98
2023-05-01T07:45:07.478Z,41.00
2023-05-01T07:46:07.744Z,41.01
2023-05-01T07:47:07.540Z,41.02
2023-05-01T07:48:07.727Z,41.01
2023-05-01T07:49:07.622Z,41.01
2023-05-01T07:50:07.640Z,41.01
2023-05-01T07:51:07.702Z,41.01
2023-05-01T07:52:07.748Z,41.00
2023-05-01T07:53:07.811Z,41.00
2023-05-01T07:54:07.804Z,41.01
2023-05-01T07:55:07.834Z,41.01
2023-05-01T07:56:07.864Z,41.00
2023-05-01T07:57:07.907Z,41.01
2023-05-01T07:58:07.980Z,41.03
2023-05-01T07:59:08.001Z,40.99
2023-05-01T08:00:08.058Z,41.02
2023-05-01T08:01:08.068Z,41.00
2023-05-01T08:02:08.155Z,41.00
2023-05-01T08:03:08.246Z,41.00
2023-05-01T08:04:08.290Z,41.02
2023-05-01T08:05:08.243Z,41.00
2023-05-01T08:06:08.328Z,41.02
2023-05-01T08:07:08.291Z,41.01
2023-05-01T08:08:08.314Z,41.00
2023-05-01T08:09:08.382Z,41.03
2023-05-01T08:10:08.432Z,41.01
2023-05-01T08:11:08.465Z,41.02
2023-05-01T08:12:08.529Z,41.00
2023-05-01T08:13:08.607Z,41.00
2023-05-01T08:14:08.615Z,41.01
2023-05-01T08:15:08.694Z,41.02
2023-05-01T08:16:08.728Z,41.00
2023-05-01T08:17:08.816Z,41.01
2023-05-01T08:18:08.821Z,41.01
2023-05-01T08:19:08.827Z,41.02
2023-05-01T08:20:08.852Z,41.01
2023-05-01T08:21:08.897Z,41.01
2023-05-01T08:22:09.803Z,40.99
2023-05-01T08:23:09.005Z,41.03
2023-05-01T08:24:08.992Z,40.99
2023-05-01T08:25:09.075Z,41.03
2023-05-01T08:26:09.110Z,41.00
2023-05-01T08:27:09.143Z,41.02
2023-05-01T08:28:09.199Z,40.99
2023-05-01T08:29:09.254Z,41.02
2023-05-01T08:30:09.251Z,41.03
2023-05-01T08:31:09.388Z,41.01
2023-05-01T08:32:09.347Z,41.02
2023-05-01T08:33:09.828Z,41.00
2023-05-01T08:34:09.419Z,41.01
2023-05-01T08:35:09.459Z,41.04
2023-05-01T08:36:09.480Z,41.00
2023-05-01T08:37:09.516Z,41.03
2023-05-01T08:38:09.552Z,41.03
2023-05-01T08:39:09.622Z,41.00
2023-05-01T08:40:09.650Z,41.02
2023-05-01T08:41:09.679Z,41.01
2023-05-01T08:42:09.772Z,41.00
2023-05-01T08:43:09.795Z,41.02
2023-05-01T08:44:09.810Z,41.03
2023-05-01T08:45:10.821Z,41.00
2023-05-01T08:46:09.934Z,40.99
2023-05-01T08:47:10.001Z,41.00
2023-05-01T08:48:10.438Z,41.02
2023-05-01T08:49:09.996Z,41.04
2023-05-01T08:50:10.035Z,41.02
2023-05-01T08:51:10.073Z,41.02
2023-05-01T08:52:10.098Z,41.03
2023-05-01T08:53:10.294Z,41.03
2023-05-01T08:54:10.181Z,41.04
2023-05-01T08:55:10.205Z,41.03
2023-05-01T08:56:10.224Z,41.01
2023-05-01T08:57:10.474Z,41.03
2023-05-01T08:58:10.296Z,41.03
2023-05-01T08:59:10.347Z,41.01
2023-05-01T09:00:10.357Z,41.02
2023-05-01T09:01:10.438Z,41.01
2023-05-01T09:02:10.733Z,41.02
2023-05-01T09:03:10.541Z,41.03
2023-05-01T09:04:10.577Z,41.02
2023-05-01T09:05:10.553Z,41.02
2023-05-01T09:06:10.666Z,41.02
2023-05-01T09:07:10.632Z,41.03
2023-05-01T09:08:10.631Z,41.01
2023-05-01T09:09:10.683Z,41.01
2023-05-01T09:10:10.671Z,41.02
2023-05-01T09:11:10.741Z,41.04
2023-05-01T09:12:10.773Z,41.01
2023-05-01T09:13:11.303Z,41.03
2023-05-01T09:14:10.800Z,41.04
2023-05-01T09:15:10.852Z,41.00
2023-05-01T09:16:10.873Z,41.03
2023-05-01T09:17:10.910Z,41.01
2023-05-01T09:18:10.995Z,41.05
2023-05-01T09:19:10.977Z,41.00
2023-05-01T09:20:11.014Z,41.04
2023-05-01T09:21:11.031Z,41.02
2023-05-01T09:22:11.057Z,41.02
2023-05-01T09:23:11.105Z,41.05
2023-05-01T09:24:11.157Z,41.01
2023-05-01T09:25:11.180Z,41.02
2023-05-01T09:26:11.202Z,41.02
2023-05-01T09:27:11.236Z,41.04
2023-05-01T09:28:11.255Z,41.01
2023-05-01T09:29:11.281Z,41.04
2023-05-01T09:30:11.324Z,41.03
2023-05-01T09:31:11.333Z,41.00
2023-05-01T09:32:11.414Z,41.03
2023-05-01T09:33:11.472Z,41.01
2023-05-01T09:34:11.445Z,41.02
2023-05-01T09:35:11.476Z,41.03
2023-05-01T09:36:11.495Z,41.01
2023-05-01T09:37:11.579Z,41.04
2023-05-01T09:38:11.832Z,41.03
2023-05-01T09:39:11.644Z,41.02
2023-05-01T09:40:11.698Z,41.04
2023-05-01T09:41:11.749Z,41.03
2023-05-01T09:42:11.825Z,41.05
2023-05-01T09:43:11.958Z,41.05
2023-05-01T09:44:11.854Z,41.01
2023-05-01T09:45:11.870Z,41.02
2023-05-01T09:46:12.041Z,41.01
2023-05-01T09:47:11.959Z,41.03
2023-05-01T09:48:12.057Z,41.02
2023-05-01T09:49:12.038Z,41.03
2023-05-01T09:50:12.048Z,41.03
2023-05-01T09:51:12.125Z,41.02
2023-05-01T09:52:12.164Z,41.02
2023-05-01T09:53:12.163Z,41.04
2023-05-01T09:54:12.207Z,41.02
2023-05-01T09:55:12.232Z,41.01
2023-05-01T09:56:12.291Z,41.02
2023-05-01T09:57:12.330Z,41.00
2023-05-01T09:58:12.379Z,41.02
2023-05-01T09:59:12.380Z,41.02
2023-05-01T10:00:12.437Z,41.02
2023-05-01T10:01:12.513Z,41.03
2023-05-01T10:02:12.519Z,41.02
2023-05-01T10:03:12.592Z,41.02
2023-05-01T10:04:12.630Z,41.04
2023-05-01T10:05:12.631Z,41.01
2023-05-01T10:06:12.681Z,41.02
2023-05-01T10:07:12.698Z,41.05
2023-05-01T10:08:12.710Z,41.02
2023-05-01T10:09:12.761Z,41.00
2023-05-01T10:10:12.788Z,41.02
2023-05-01T10:11:12.858Z,41.01
2023-05-01T10:12:12.848Z,41.02
2023-05-01T10:13:12.897Z,41.01
2023-05-01T10:14:12.915Z,41.03
2023-05-01T10:15:24.777Z,41.01
2023-05-01T10:16:13.939Z,41.02
2023-05-01T10:17:12.980Z,41.02
2023-05-01T10:18:12.958Z,41.00
2023-05-01T10:19:12.938Z,41.03
2023-05-01T10:20:12.901Z,41.03
2023-05-01T10:21:12.908Z,41.01
2023-05-01T10:22:12.885Z,41.02
2023-05-01T10:23:12.882Z,41.03
2023-05-01T10:24:12.885Z,41.03
2023-05-01T10:25:12.873Z,41.03
2023-05-01T10:26:12.889Z,41.03
2023-05-01T10:27:12.877Z,41.00
2023-05-01T10:28:12.863Z,41.00
2023-05-01T10:29:12.887Z,41.02
2023-05-01T10:30:12.919Z,41.02
2023-05-01T10:31:12.992Z,41.01
2023-05-01T10:32:12.962Z,41.02
2023-05-01T10:33:13.133Z,41.04
2023-05-01T10:34:13.060Z,41.03
2023-05-01T10:35:13.079Z,41.01
2023-05-01T10:36:13.083Z,41.02
2023-05-01T10:37:13.164Z,41.01
2023-05-01T10:38:13.199Z,41.03
2023-05-01T10:39:13.213Z,41.02
2023-05-01T10:40:13.209Z,41.03
2023-05-01T10:41:13.287Z,41.01
2023-05-01T10:42:13.309Z,41.04
2023-05-01T10:43:13.322Z,41.00
2023-05-01T10:44:13.378Z,41.03
2023-05-01T10:45:13.401Z,41.02
2023-05-01T10:46:13.495Z,41.01
2023-05-01T10:47:13.473Z,41.00
2023-05-01T10:48:13.872Z,41.02
2023-05-01T10:49:13.545Z,41.06
2023-05-01T10:50:13.602Z,41.01
2023-05-01T10:51:13.627Z,41.05
2023-05-01T10:52:13.676Z,41.00
2023-05-01T10:53:13.876Z,41.03
2023-05-01T10:54:13.754Z,41.01
2023-05-01T10:55:13.795Z,41.02
2023-05-01T10:56:13.845Z,41.03
2023-05-01T10:57:13.864Z,41.04
2023-05-01T10:58:14.065Z,41.02
2023-05-01T10:59:13.949Z,41.03
2023-05-01T11:00:14.045Z,41.00
2023-05-01T11:01:14.095Z,41.06
2023-05-01T11:02:14.164Z,41.02
2023-05-01T11:03:14.159Z,41.05
2023-05-01T11:04:14.125Z,41.03
2023-05-01T11:05:14.188Z,41.02
2023-05-01T11:06:14.274Z,41.03
2023-05-01T11:07:14.276Z,41.02
2023-05-01T11:08:14.258Z,41.04
2023-05-01T11:09:14.285Z,41.02
2023-05-01T11:10:14.300Z,41.04
2023-05-01T11:11:14.324Z,41.01
2023-05-01T11:12:14.380Z,41.02
2023-05-01T11:13:14.368Z,41.05
2023-05-01T11:14:14.469Z,41.01
2023-05-01T11:15:14.426Z,41.05
2023-05-01T11:16:14.444Z,41.07
2023-05-01T11:17:14.445Z,41.04
2023-05-01T11:18:14.495Z,41.01
2023-05-01T11:19:14.493Z,41.04
2023-05-01T11:20:14.560Z,41.05
2023-05-01T11:21:14.505Z,41.05
2023-05-01T11:22:14.567Z,41.03
2023-05-01T11:23:14.564Z,41.05
2023-05-01T11:24:14.625Z,41.06
2023-05-01T11:25:14.608Z,41.02
2023-05-01T11:26:14.625Z,41.06
2023-05-01T11:27:14.654Z,41.04
2023-05-01T11:28:14.661Z,41.04
2023-05-01T11:29:14.727Z,41.04
2023-05-01T11:30:14.779Z,41.04
2023-05-01T11:31:14.808Z,41.05
2023-05-01T11:32:14.984Z,41.05
2023-05-01T11:33:14.869Z,41.05
2023-05-01T11:34:14.835Z,41.07
2023-05-01T11:35:14.850Z,41.05
2023-05-01T11:36:15.417Z,41.06
2023-05-01T11:37:14.890Z,41.06
2023-05-01T11:38:14.894Z,41.05
2023-05-01T11:39:14.895Z,41.06
2023-05-01T11:40:14.918Z,41.08
2023-05-01T11:41:14.953Z,41.05
2023-05-01T11:42:15.200Z,41.06
2023-05-01T11:43:15.021Z,41.05
2023-05-01T11:44:15.035Z,41.08
2023-05-01T11:45:15.031Z,41.07
2023-05-01T11:46:15.103Z,41.06
2023-05-01T11:47:15.068Z,41.04
2023-05-01T11:48:15.138Z,41.07
2023-05-01T11:49:15.088Z,41.08
2023-05-01T11:50:15.129Z,41.06
2023-05-01T11:51:15.123Z,41.07
2023-05-01T11:52:15.146Z,41.05
2023-05-01T11:53:15.182Z,41.08
2023-05-01T11:54:15.771Z,41.09
2023-05-01T11:55:15.200Z,41.06
2023-05-01T11:56:25.450Z,41.07
2023-05-01T11:57:16.216Z,41.07
2023-05-01T11:58:15.214Z,41.08
2023-05-01T11:59:15.195Z,41.06
2023-05-01T12:00:15.183Z,41.06
2023-05-01T12:01:15.159Z,41.07
2023-05-01T12:02:15.234Z,41.05
2023-05-01T12:03:15.647Z,41.06
2023-05-01T12:04:15.228Z,41.08
2023-05-01T12:05:15.132Z,41.08
2023-05-01T12:06:15.213Z,41.05
2023-05-01T12:07:15.144Z,41.08
2023-05-01T12:08:15.118Z,41.06
2023-05-01T12:09:15.126Z,41.07
2023-05-01T12:10:15.103Z,41.05
2023-05-01T12:11:15.108Z,41.06
2023-05-01T12:12:15.104Z,41.05
2023-05-01T12:13:15.440Z,41.05
2023-05-01T12:14:15.088Z,41.08
2023-05-01T12:15:15.058Z,41.08
2023-05-01T12:16:15.086Z,41.06
2023-05-01T12:17:15.106Z,41.06
2023-05-01T12:18:15.080Z,41.06
2023-05-01T12:19:15.072Z,41.05
2023-05-01T12:20:15.036Z,41.06
2023-05-01T12:21:15.033Z,41.04
2023-05-01T12:22:15.085Z,41.08
2023-05-01T12:23:15.098Z,41.08
2023-05-01T12:24:15.126Z,41.07
2023-05-01T12:25:15.126Z,41.07
2023-05-01T12:26:15.144Z,41.08
2023-05-01T12:27:15.188Z,41.06
2023-05-01T12:28:15.443Z,41.06
2023-05-01T12:29:15.195Z,41.06
2023-05-01T12:30:15.236Z,41.04
2023-05-01T12:31:15.240Z,41.06
2023-05-01T12:32:15.230Z,41.06
2023-05-01T12:33:15.292Z,41.08
2023-05-01T12:34:15.292Z,41.04
2023-05-01T12:35:15.288Z,41.07
2023-05-01T12:36:15.312Z,41.09
2023-05-01T12:37:15.332Z,41.06
2023-05-01T12:38:15.344Z,41.07
2023-05-01T12:39:15.346Z,41.06
2023-05-01T12:40:15.341Z,41.07
2023-05-01T12:41:15.370Z,41.09
2023-05-01T12:42:15.386Z,41.05
2023-05-01T12:43:15.372Z,41.06
2023-05-01T12:44:15.409Z,41.05
2023-05-01T12:45:15.402Z,41.05
2023-05-01T12:46:15.500Z,41.05
2023-05-01T12:47:15.457Z,41.06
2023-05-01T12:48:15.441Z,41.05
2023-05-01T12:49:15.475Z,41.06
2023-05-01T12:50:15.472Z,41.07
2023-05-01T12:51:15.496Z,41.05
2023-05-01T12:52:15.499Z,41.06
2023-05-01T12:53:15.496Z,41.07